Terminal Aerodrome Forecast
Issued by NWS Mt. Holly, NJ

Home | Current Version | Previous Version | Text Only | Print | Product List | Glossary On
Versions: 1 2 3 4 5 6 7 8 9 10 11 12 13 14 15 16 17 18
339
FTUS41 KPHI 251328 AAA
TAFACY
TAF AMD
KACY 251328Z 2513/2612 07017G27KT 3SM -RA BR BKN008 OVC015
      TEMPO 2513/2516 BKN002 OVC008
     FM251800 07020G30KT 2SM RA OVC009 WS017/10051KT
     FM252100 10016G25KT 3SM -RA OVC007
      TEMPO 2523/2602 1SM +RA
     FM260300 04007KT 1SM BR OVC003=

USA.gov is the U.S. government's official web portal to all federal, state and local government web resources and services.